createdAt,value
2018-12-20T00:02:04.363Z,12.93
2018-12-20T00:04:31.827Z,12.87
2018-12-20T00:06:59.380Z,12.60
2018-12-20T00:09:26.945Z,11.97
2018-12-20T00:11:54.411Z,12.97
2018-12-20T00:14:21.911Z,12.37
2018-12-20T00:16:51.324Z,12.17
2018-12-20T00:19:18.813Z,12.97
2018-12-20T00:21:46.335Z,12.77
2018-12-20T00:24:13.872Z,13.03
2018-12-20T00:26:41.815Z,12.47
2018-12-20T00:29:09.300Z,12.87
2018-12-20T00:31:36.890Z,11.60
2018-12-20T00:34:04.327Z,12.47
2018-12-20T00:36:31.796Z,13.43
2018-12-20T00:38:59.338Z,14.07
2018-12-20T00:41:26.894Z,13.40
2018-12-20T00:43:54.443Z,13.30
2018-12-20T00:46:21.939Z,13.30
2018-12-20T00:48:49.529Z,12.40
2018-12-20T00:51:17.107Z,13.53
2018-12-20T00:53:44.661Z,13.73
2018-12-20T00:56:12.183Z,13.30
2018-12-20T00:58:39.631Z,13.30
2018-12-20T01:01:07.162Z,13.77
2018-12-20T01:03:34.705Z,13.23
2018-12-20T01:06:02.200Z,12.93
2018-12-20T01:08:29.801Z,12.67
2018-12-20T01:10:57.427Z,13.10
2018-12-20T01:13:25.101Z,12.03
2018-12-20T01:15:52.658Z,12.13
2018-12-20T01:18:20.224Z,12.40
2018-12-20T01:20:47.736Z,12.97
2018-12-20T01:23:15.350Z,12.37
2018-12-20T01:25:42.999Z,13.17
2018-12-20T01:28:10.490Z,12.70
2018-12-20T01:30:37.950Z,12.77
2018-12-20T01:33:05.500Z,11.83
2018-12-20T01:35:33.123Z,11.47
2018-12-20T01:38:00.753Z,12.03
2018-12-20T01:40:28.370Z,12.87
2018-12-20T01:42:55.894Z,12.43
2018-12-20T01:45:23.449Z,12.83
2018-12-20T01:47:51.091Z,11.57
2018-12-20T01:50:19.110Z,12.40
2018-12-20T01:52:46.593Z,11.83
2018-12-20T01:55:14.264Z,11.53
2018-12-20T01:57:42.000Z,11.70
2018-12-20T02:00:10.570Z,12.03
2018-12-20T02:02:38.070Z,12.50
2018-12-20T02:05:05.661Z,13.87
2018-12-20T02:07:33.207Z,12.97
2018-12-20T02:10:00.886Z,12.67
2018-12-20T02:12:28.348Z,13.50
2018-12-20T02:15:01.561Z,14.57
2018-12-20T02:17:25.281Z,13.00
2018-12-20T02:19:52.815Z,13.30
2018-12-20T02:22:20.242Z,13.90
2018-12-20T02:24:47.789Z,12.43
2018-12-20T02:27:15.322Z,13.37
2018-12-20T02:29:42.859Z,13.10
2018-12-20T02:32:10.332Z,13.47
2018-12-20T02:34:38.018Z,13.37
2018-12-20T02:37:05.658Z,12.87
2018-12-20T02:39:33.402Z,12.50
2018-12-20T02:42:01.119Z,11.53
2018-12-20T02:44:28.603Z,12.97
2018-12-20T02:46:56.132Z,13.07
2018-12-20T02:49:23.915Z,13.13
2018-12-20T02:51:51.415Z,12.83
2018-12-20T02:54:19.014Z,13.60
2018-12-20T02:56:46.738Z,13.20
2018-12-20T02:59:14.453Z,11.37
2018-12-20T03:01:42.155Z,12.30
2018-12-20T03:04:09.885Z,12.80
2018-12-20T03:06:37.435Z,12.80
2018-12-20T03:09:07.179Z,12.30
2018-12-20T03:11:34.781Z,12.40
2018-12-20T03:14:02.631Z,12.07
2018-12-20T03:16:30.399Z,12.13
2018-12-20T03:18:57.942Z,11.33
2018-12-20T03:21:25.460Z,12.00
2018-12-20T03:23:53.126Z,12.17
2018-12-20T03:26:20.706Z,12.43
2018-12-20T03:28:48.295Z,12.53
2018-12-20T03:31:16.024Z,12.00
2018-12-20T03:33:44.017Z,13.37
2018-12-20T03:36:11.717Z,12.83
2018-12-20T03:38:39.227Z,12.97
2018-12-20T03:41:06.719Z,14.10
2018-12-20T03:43:34.559Z,13.37
2018-12-20T03:46:02.280Z,13.20
2018-12-20T03:48:29.998Z,12.70
2018-12-20T03:50:57.774Z,13.27
2018-12-20T03:53:25.446Z,12.17
2018-12-20T03:55:53.018Z,12.73
2018-12-20T03:58:20.496Z,11.83
2018-12-20T04:00:47.941Z,11.40
2018-12-20T04:03:15.543Z,11.30
2018-12-20T04:05:43.068Z,11.77
2018-12-20T04:08:10.630Z,11.93
2018-12-20T04:10:38.297Z,11.50
2018-12-20T04:13:05.824Z,12.13
2018-12-20T04:15:37.803Z,12.00
2018-12-20T04:18:02.746Z,10.97
2018-12-20T04:20:30.372Z,11.67
2018-12-20T04:22:57.887Z,13.23
2018-12-20T04:25:25.538Z,11.60
2018-12-20T04:27:53.255Z,11.17
2018-12-20T04:30:20.920Z,10.77
2018-12-20T04:32:48.538Z,10.93
2018-12-20T04:35:16.052Z,10.97
2018-12-20T04:37:43.585Z,11.03
2018-12-20T04:40:11.220Z,9.83
2018-12-20T04:42:38.731Z,10.10
2018-12-20T04:45:06.310Z,11.63
2018-12-20T04:47:33.835Z,10.73
2018-12-20T04:50:01.719Z,10.53
2018-12-20T04:52:29.366Z,11.20
2018-12-20T04:54:56.931Z,10.57
2018-12-20T04:57:24.668Z,11.10
2018-12-20T04:59:52.218Z,11.50
2018-12-20T05:02:20.062Z,11.43
2018-12-20T05:04:47.823Z,11.80
2018-12-20T05:07:15.344Z,10.90
2018-12-20T05:09:42.908Z,11.83
2018-12-20T05:12:10.496Z,10.80
2018-12-20T05:14:38.250Z,10.80
2018-12-20T05:17:05.985Z,11.03
2018-12-20T05:19:33.521Z,10.20
2018-12-20T05:22:00.979Z,11.20
2018-12-20T05:24:28.549Z,10.33
2018-12-20T05:26:56.335Z,10.20
2018-12-20T05:29:23.983Z,10.90
2018-12-20T05:31:51.487Z,11.40
2018-12-20T05:34:19.065Z,10.43
2018-12-20T05:36:46.816Z,10.80
2018-12-20T05:39:14.620Z,10.83
2018-12-20T05:41:42.234Z,10.70
2018-12-20T05:44:09.906Z,10.90
2018-12-20T05:46:37.480Z,11.07
2018-12-20T05:49:04.919Z,10.97
2018-12-20T05:51:32.378Z,11.07
2018-12-20T05:54:00.155Z,10.77
2018-12-20T05:56:27.688Z,10.37
2018-12-20T05:58:55.461Z,10.50
2018-12-20T06:01:23.294Z,10.83
2018-12-20T06:03:50.870Z,10.47
2018-12-20T06:06:18.532Z,10.97
2018-12-20T06:08:46.057Z,11.30
2018-12-20T06:11:13.589Z,11.20
2018-12-20T06:13:41.057Z,11.07
2018-12-20T06:16:12.565Z,11.63
2018-12-20T06:18:38.005Z,11.73
2018-12-20T06:21:05.617Z,11.57
2018-12-20T06:23:33.311Z,12.47
2018-12-20T06:26:00.815Z,11.57
2018-12-20T06:28:28.241Z,12.57
2018-12-20T06:30:57.669Z,11.23
2018-12-20T06:33:25.117Z,12.43
2018-12-20T06:35:52.560Z,12.00
2018-12-20T06:38:19.995Z,10.90
2018-12-20T06:40:47.444Z,11.50
2018-12-20T06:43:14.883Z,12.27
2018-12-20T06:45:42.347Z,11.73
2018-12-20T06:48:09.787Z,11.77
2018-12-20T06:50:37.239Z,11.27
2018-12-20T06:53:04.691Z,11.50
2018-12-20T06:55:32.135Z,11.43
2018-12-20T06:57:59.584Z,11.63
2018-12-20T07:00:27.036Z,11.37
2018-12-20T07:02:54.471Z,11.20
2018-12-20T07:05:21.935Z,10.80
2018-12-20T07:07:49.379Z,10.80
2018-12-20T07:10:16.824Z,10.70
2018-12-20T07:12:44.319Z,10.90
2018-12-20T07:15:11.800Z,10.73
2018-12-20T07:17:39.235Z,10.87
2018-12-20T07:20:07.208Z,10.50
2018-12-20T07:22:34.662Z,10.23
2018-12-20T07:25:02.136Z,11.37
2018-12-20T07:27:29.672Z,10.30
2018-12-20T07:29:57.112Z,10.33
2018-12-20T07:32:25.254Z,10.60
2018-12-20T07:34:53.131Z,10.47
2018-12-20T07:37:20.577Z,10.27
2018-12-20T07:39:48.059Z,9.53
2018-12-20T07:42:15.535Z,9.83
2018-12-20T07:44:43.012Z,10.03
2018-12-20T07:47:10.463Z,9.90
2018-12-20T07:49:37.906Z,9.73
2018-12-20T07:52:05.376Z,8.33
2018-12-20T07:54:32.831Z,7.73
2018-12-20T07:57:00.439Z,6.87
2018-12-20T07:59:27.927Z,6.37
2018-12-20T08:01:55.396Z,6.33
2018-12-20T08:04:22.839Z,6.57
2018-12-20T08:06:50.315Z,6.80
2018-12-20T08:09:17.798Z,6.30
2018-12-20T08:11:45.252Z,6.60
2018-12-20T08:14:12.744Z,7.17
2018-12-20T08:16:45.948Z,6.87
2018-12-20T08:19:09.649Z,5.77
2018-12-20T08:21:37.087Z,5.37
2018-12-20T08:24:04.596Z,4.47
2018-12-20T08:26:32.029Z,3.87
2018-12-20T08:28:59.471Z,4.07
2018-12-20T08:31:26.939Z,4.60
2018-12-20T08:33:54.422Z,5.67
2018-12-20T08:36:21.864Z,6.13
2018-12-20T08:38:49.299Z,4.87
2018-12-20T08:41:16.731Z,5.63
2018-12-20T08:43:44.195Z,5.43
2018-12-20T08:46:11.632Z,5.50
2018-12-20T08:48:39.075Z,5.27
2018-12-20T08:51:06.535Z,4.93
2018-12-20T08:53:33.995Z,4.90
2018-12-20T08:56:01.442Z,4.80
2018-12-20T08:58:28.895Z,4.27
2018-12-20T09:00:56.342Z,4.60
2018-12-20T09:03:23.784Z,3.90
2018-12-20T09:05:51.215Z,4.73
2018-12-20T09:08:18.687Z,4.07
2018-12-20T09:10:46.229Z,2.47
2018-12-20T09:13:13.663Z,2.90
2018-12-20T09:15:41.141Z,2.60
2018-12-20T09:18:08.588Z,3.00
2018-12-20T09:20:36.111Z,2.50
2018-12-20T09:23:03.910Z,2.37
2018-12-20T09:25:31.367Z,2.47
2018-12-20T09:27:58.823Z,2.47
2018-12-20T09:30:30.392Z,2.63
2018-12-20T09:32:55.759Z,2.90
2018-12-20T09:35:23.209Z,2.60
2018-12-20T09:37:50.649Z,2.60
2018-12-20T09:40:18.099Z,2.47
2018-12-20T09:42:45.543Z,2.43
2018-12-20T09:45:13.807Z,2.60
2018-12-20T09:47:46.904Z,2.20
2018-12-20T09:50:14.370Z,2.43
2018-12-20T09:52:41.859Z,2.80
2018-12-20T09:55:09.327Z,2.97
2018-12-20T09:57:36.778Z,2.53
2018-12-20T10:00:06.356Z,2.53
2018-12-20T10:02:33.823Z,2.97
2018-12-20T10:05:01.381Z,2.47
2018-12-20T10:07:28.800Z,2.40
2018-12-20T10:09:56.266Z,2.33
2018-12-20T10:12:23.704Z,2.27
2018-12-20T10:14:51.146Z,2.53
2018-12-20T10:17:19.942Z,2.13
2018-12-20T10:19:47.980Z,2.30
2018-12-20T10:22:15.420Z,2.33
2018-12-20T10:24:42.867Z,2.20
2018-12-20T10:27:10.315Z,2.43
2018-12-20T10:29:37.864Z,2.30
2018-12-20T10:32:05.361Z,2.33
2018-12-20T10:34:32.807Z,2.87
2018-12-20T10:37:00.287Z,3.33
2018-12-20T10:39:27.712Z,2.50
2018-12-20T10:41:55.151Z,3.47
2018-12-20T10:44:22.644Z,3.93
2018-12-20T10:46:50.115Z,3.67
2018-12-20T10:49:17.556Z,2.70
2018-12-20T10:51:45.040Z,2.67
2018-12-20T10:54:12.507Z,3.17
2018-12-20T10:56:40.943Z,3.10
2018-12-20T10:59:08.426Z,2.90
2018-12-20T11:01:41.652Z,2.50
2018-12-20T11:04:14.715Z,2.53
2018-12-20T11:06:47.911Z,2.83
2018-12-20T11:12:24.262Z,2.50
2018-12-20T11:14:51.719Z,2.53
2018-12-20T11:17:19.200Z,2.50
2018-12-20T11:19:46.653Z,2.40
2018-12-20T11:22:14.099Z,2.40
2018-12-20T11:24:41.534Z,2.50
2018-12-20T11:27:08.986Z,2.03
2018-12-20T11:29:36.507Z,2.87
2018-12-20T11:32:03.995Z,2.37
2018-12-20T11:34:31.476Z,2.17
2018-12-20T11:36:58.928Z,2.60
2018-12-20T11:39:26.393Z,2.33
2018-12-20T11:41:53.837Z,2.07
2018-12-20T11:44:21.271Z,2.50
2018-12-20T11:46:49.171Z,2.50
2018-12-20T11:49:16.784Z,2.53
2018-12-20T11:51:44.372Z,4.23
2018-12-20T11:54:11.816Z,2.40
2018-12-20T11:56:39.267Z,3.03
2018-12-20T11:59:06.715Z,2.90
2018-12-20T12:01:34.163Z,3.40
2018-12-20T12:04:01.604Z,3.10
2018-12-20T12:06:29.079Z,3.47
2018-12-20T12:08:57.503Z,3.20
2018-12-20T12:11:24.969Z,3.17
2018-12-20T12:13:52.434Z,3.20
2018-12-20T12:16:19.865Z,3.53
2018-12-20T12:18:47.452Z,3.00
2018-12-20T12:21:14.924Z,2.83
2018-12-20T12:23:42.372Z,3.07
2018-12-20T12:26:09.799Z,2.63
2018-12-20T12:28:37.241Z,2.37
2018-12-20T12:31:04.672Z,2.60
2018-12-20T12:33:32.113Z,3.10
2018-12-20T12:35:59.547Z,2.27
2018-12-20T12:38:26.992Z,2.20
2018-12-20T12:40:54.431Z,2.30
2018-12-20T12:43:21.875Z,2.37
2018-12-20T12:45:49.355Z,2.30
2018-12-20T12:48:16.824Z,2.20
2018-12-20T12:50:44.266Z,2.27
2018-12-20T12:53:11.770Z,2.10
2018-12-20T12:55:39.624Z,2.10
2018-12-20T12:58:07.059Z,2.13
2018-12-20T13:00:34.496Z,1.80
2018-12-20T13:03:01.951Z,2.57
2018-12-20T13:05:29.412Z,2.60
2018-12-20T13:07:56.868Z,2.10
2018-12-20T13:10:24.328Z,2.80
2018-12-20T13:12:51.772Z,2.23
2018-12-20T13:15:19.219Z,2.17
2018-12-20T13:17:46.792Z,2.20
2018-12-20T13:20:15.488Z,2.10
2018-12-20T13:22:42.951Z,2.50
2018-12-20T13:25:10.410Z,2.80
2018-12-20T13:27:37.849Z,2.47
2018-12-20T13:30:09.366Z,2.50
2018-12-20T13:32:36.883Z,2.60
2018-12-20T13:35:04.487Z,2.60
2018-12-20T13:37:31.926Z,2.63
2018-12-20T13:39:59.450Z,2.90
2018-12-20T13:42:26.940Z,2.90
2018-12-20T13:44:54.388Z,2.67
2018-12-20T13:47:21.823Z,3.40
2018-12-20T13:49:49.299Z,3.20
2018-12-20T13:52:16.738Z,3.53
2018-12-20T13:54:44.207Z,3.33
2018-12-20T13:57:11.670Z,3.80
2018-12-20T13:59:39.115Z,3.70
2018-12-20T14:02:06.583Z,3.57
2018-12-20T14:04:34.034Z,3.03
2018-12-20T14:07:01.472Z,2.57
2018-12-20T14:09:28.944Z,4.07
2018-12-20T14:11:56.383Z,2.90
2018-12-20T14:14:23.972Z,3.10
2018-12-20T14:16:51.460Z,3.40
2018-12-20T14:19:18.927Z,3.10
2018-12-20T14:21:46.399Z,3.03
2018-12-20T14:24:13.863Z,3.30
2018-12-20T14:26:41.355Z,3.33
2018-12-20T14:29:08.802Z,2.80
2018-12-20T14:31:36.299Z,3.70
2018-12-20T14:34:03.795Z,3.43
2018-12-20T14:36:31.456Z,3.27
2018-12-20T14:38:58.904Z,3.50
2018-12-20T14:41:26.365Z,3.10
2018-12-20T14:43:53.808Z,3.60
2018-12-20T14:46:21.330Z,3.93
2018-12-20T14:48:48.775Z,3.70
2018-12-20T14:51:16.224Z,3.60
2018-12-20T14:53:43.668Z,3.50
2018-12-20T14:56:11.141Z,4.17
2018-12-20T14:58:38.583Z,4.07
2018-12-20T15:01:06.026Z,4.07
2018-12-20T15:03:33.475Z,3.63
2018-12-20T15:06:00.952Z,3.73
2018-12-20T15:08:28.393Z,4.30
2018-12-20T15:10:55.923Z,4.30
2018-12-20T15:13:23.363Z,4.23
2018-12-20T15:15:50.811Z,3.87
2018-12-20T15:18:18.287Z,3.43
2018-12-20T15:20:45.732Z,3.93
2018-12-20T15:23:13.171Z,4.13
2018-12-20T15:25:40.628Z,3.30
2018-12-20T15:28:08.067Z,3.60
2018-12-20T15:30:35.638Z,3.50
2018-12-20T15:33:03.147Z,4.27
2018-12-20T15:35:30.624Z,3.40
2018-12-20T15:37:58.163Z,3.63
2018-12-20T15:40:25.649Z,4.47
2018-12-20T15:42:53.177Z,4.00
2018-12-20T15:45:20.627Z,4.03
2018-12-20T15:47:48.072Z,4.20
2018-12-20T15:50:15.521Z,3.90
2018-12-20T15:52:42.978Z,4.53
2018-12-20T15:55:10.468Z,5.57
2018-12-20T15:57:37.899Z,5.10
2018-12-20T16:00:07.792Z,5.23
2018-12-20T16:02:35.237Z,5.90
2018-12-20T16:05:02.707Z,5.40
2018-12-20T16:07:30.144Z,5.93
2018-12-20T16:09:57.658Z,6.20
2018-12-20T16:12:25.120Z,5.90
2018-12-20T16:14:52.572Z,6.87
2018-12-20T16:17:20.056Z,6.00
2018-12-20T16:19:47.503Z,5.73
2018-12-20T16:22:15.048Z,5.40
2018-12-20T16:24:42.475Z,6.23
2018-12-20T16:27:09.911Z,5.47
2018-12-20T16:29:37.356Z,6.07
2018-12-20T16:32:04.851Z,5.77
2018-12-20T16:34:32.297Z,4.97
2018-12-20T16:36:59.779Z,5.90
2018-12-20T16:39:27.222Z,5.70
2018-12-20T16:41:54.647Z,4.90
2018-12-20T16:44:22.091Z,5.10
2018-12-20T16:46:49.534Z,5.17
2018-12-20T16:49:16.970Z,5.50
2018-12-20T16:51:44.413Z,5.03
2018-12-20T16:54:11.851Z,4.93
2018-12-20T16:56:39.296Z,5.40
2018-12-20T16:59:06.736Z,5.40
2018-12-20T17:01:34.179Z,6.00
2018-12-20T17:04:01.615Z,5.13
2018-12-20T17:06:29.069Z,4.53
2018-12-20T17:08:56.532Z,4.13
2018-12-20T17:11:24.043Z,4.37
2018-12-20T17:13:51.478Z,4.50
2018-12-20T17:16:18.948Z,4.03
2018-12-20T17:18:46.430Z,4.27
2018-12-20T17:21:14.003Z,3.80
2018-12-20T17:23:41.540Z,4.07
2018-12-20T17:26:09.127Z,4.03
2018-12-20T17:28:37.107Z,4.23
2018-12-20T17:31:04.590Z,4.37
2018-12-20T17:33:32.063Z,4.13
2018-12-20T17:35:59.700Z,4.13
2018-12-20T17:38:27.311Z,3.90
2018-12-20T17:40:54.767Z,4.60
2018-12-20T17:43:22.211Z,4.63
2018-12-20T17:45:49.736Z,4.60
2018-12-20T17:48:17.238Z,4.80
2018-12-20T17:50:44.698Z,4.53
2018-12-20T17:53:12.165Z,4.30
2018-12-20T17:55:44.740Z,4.50
2018-12-20T17:58:09.121Z,4.03
2018-12-20T18:00:36.619Z,3.53
2018-12-20T18:03:04.285Z,4.30
2018-12-20T18:05:31.818Z,3.97
2018-12-20T18:07:59.362Z,3.60
2018-12-20T18:10:26.846Z,3.87
2018-12-20T18:12:54.391Z,3.80
2018-12-20T18:15:21.843Z,3.30
2018-12-20T18:17:49.291Z,3.73
2018-12-20T18:20:16.786Z,4.77
2018-12-20T18:22:44.354Z,5.00
2018-12-20T18:25:11.829Z,3.83
2018-12-20T18:27:39.293Z,3.43
2018-12-20T18:30:09.108Z,3.60
2018-12-20T18:32:36.755Z,3.80
2018-12-20T18:35:05.427Z,3.77
2018-12-20T18:37:32.987Z,4.13
2018-12-20T18:40:00.563Z,4.37
2018-12-20T18:42:28.027Z,4.63
2018-12-20T18:44:55.587Z,3.90
2018-12-20T18:47:23.047Z,3.80
2018-12-20T18:49:50.519Z,3.80
2018-12-20T18:52:18.067Z,4.07
2018-12-20T18:54:45.519Z,4.03
2018-12-20T18:57:12.983Z,3.77
2018-12-20T18:59:40.444Z,3.67
2018-12-20T19:02:07.939Z,4.33
2018-12-20T19:04:35.388Z,4.07
2018-12-20T19:07:02.942Z,3.93
2018-12-20T19:09:30.376Z,3.13
2018-12-20T19:11:57.844Z,3.43
2018-12-20T19:14:25.298Z,3.70
2018-12-20T19:16:52.892Z,3.70
2018-12-20T19:19:20.716Z,3.30
2018-12-20T19:21:48.268Z,3.07
2018-12-20T19:24:15.780Z,2.80
2018-12-20T19:26:43.277Z,2.90
2018-12-20T19:29:10.724Z,3.73
2018-12-20T19:31:38.210Z,3.20
2018-12-20T19:34:05.668Z,3.37
2018-12-20T19:36:33.272Z,3.70
2018-12-20T19:39:00.731Z,3.00
2018-12-20T19:41:28.327Z,2.87
2018-12-20T19:43:55.776Z,3.07
2018-12-20T19:46:23.224Z,3.07
2018-12-20T19:48:50.730Z,3.00
2018-12-20T19:51:18.292Z,3.17
2018-12-20T19:53:45.797Z,2.90
2018-12-20T19:56:13.253Z,2.97
2018-12-20T19:58:40.688Z,2.60
2018-12-20T20:01:08.144Z,2.97
2018-12-20T20:03:35.584Z,2.60
2018-12-20T20:06:03.100Z,2.67
2018-12-20T20:08:30.627Z,2.80
2018-12-20T20:10:58.082Z,2.73
2018-12-20T20:13:30.718Z,3.00
2018-12-20T20:15:54.995Z,3.07
2018-12-20T20:18:22.458Z,2.73
2018-12-20T20:20:49.992Z,3.30
2018-12-20T20:23:17.441Z,3.00
2018-12-20T20:25:44.891Z,2.40
2018-12-20T20:28:12.356Z,3.07
2018-12-20T20:30:39.809Z,3.10
2018-12-20T20:33:07.255Z,2.57
2018-12-20T20:35:34.704Z,2.70
2018-12-20T20:38:02.222Z,3.10
2018-12-20T20:40:29.662Z,3.17
2018-12-20T20:42:57.117Z,3.13
2018-12-20T20:45:24.580Z,3.40
2018-12-20T20:47:52.047Z,2.97
2018-12-20T20:50:22.680Z,3.10
2018-12-20T20:52:49.073Z,3.20
2018-12-20T20:55:16.522Z,3.10
2018-12-20T20:57:43.979Z,2.90
2018-12-20T21:00:11.541Z,3.23
2018-12-20T21:02:39.028Z,3.13
2018-12-20T21:05:07.139Z,3.17
2018-12-20T21:07:34.633Z,3.03
2018-12-20T21:10:02.145Z,3.30
2018-12-20T21:12:29.703Z,3.27
2018-12-20T21:14:57.235Z,3.70
2018-12-20T21:17:24.685Z,3.00
2018-12-20T21:19:52.208Z,2.73
2018-12-20T21:22:19.657Z,2.67
2018-12-20T21:24:47.316Z,2.90
2018-12-20T21:27:14.775Z,3.33
2018-12-20T21:29:42.212Z,2.70
2018-12-20T21:32:09.784Z,2.93
2018-12-20T21:34:37.219Z,2.63
2018-12-20T21:37:04.675Z,2.87
2018-12-20T21:39:32.154Z,2.37
2018-12-20T21:41:59.615Z,3.30
2018-12-20T21:44:27.088Z,2.83
2018-12-20T21:46:54.575Z,2.60
2018-12-20T21:49:22.028Z,2.53
2018-12-20T21:51:49.496Z,2.70
2018-12-20T21:54:16.948Z,2.70
2018-12-20T21:56:44.396Z,2.97
2018-12-20T21:59:11.850Z,2.93
2018-12-20T22:01:39.334Z,2.87
2018-12-20T22:04:06.920Z,3.07
2018-12-20T22:06:34.405Z,3.00
2018-12-20T22:09:01.870Z,2.47
2018-12-20T22:11:29.497Z,2.80
2018-12-20T22:13:56.955Z,3.23
2018-12-20T22:16:24.404Z,2.70
2018-12-20T22:18:51.852Z,2.70
2018-12-20T22:21:19.324Z,3.20
2018-12-20T22:23:46.780Z,2.80
2018-12-20T22:26:14.232Z,2.70
2018-12-20T22:28:41.699Z,2.83
2018-12-20T22:31:09.141Z,2.93
2018-12-20T22:33:36.593Z,2.90
2018-12-20T22:36:04.059Z,2.70
2018-12-20T22:38:31.517Z,2.50
2018-12-20T22:40:59.052Z,3.43
2018-12-20T22:43:26.692Z,3.23
2018-12-20T22:45:54.156Z,3.23
2018-12-20T22:48:21.636Z,3.17
2018-12-20T22:50:55.921Z,3.30
2018-12-20T22:53:18.660Z,3.63
2018-12-20T22:55:46.259Z,3.10
2018-12-20T22:58:13.725Z,2.77
2018-12-20T23:00:43.783Z,3.07
2018-12-20T23:03:11.311Z,3.30
2018-12-20T23:05:39.157Z,2.70
2018-12-20T23:08:06.677Z,3.20
2018-12-20T23:10:34.327Z,2.90
2018-12-20T23:13:01.809Z,2.90
2018-12-20T23:15:29.279Z,2.67
2018-12-20T23:17:56.735Z,2.70
2018-12-20T23:20:24.232Z,2.73
2018-12-20T23:25:25.633Z,2.23
2018-12-20T23:27:53.180Z,2.40
2018-12-20T23:30:20.632Z,2.17
2018-12-20T23:32:48.152Z,2.23
2018-12-20T23:35:15.622Z,2.40
2018-12-20T23:37:43.090Z,3.10
2018-12-20T23:40:10.523Z,2.60
2018-12-20T23:42:38.067Z,2.37
2018-12-20T23:45:05.654Z,2.30
2018-12-20T23:47:33.119Z,2.90
2018-12-20T23:50:00.560Z,2.50
2018-12-20T23:52:28.040Z,2.27
2018-12-20T23:54:55.555Z,2.23
2018-12-20T23:57:23.111Z,2.27
2018-12-20T23:59:50.643Z,2.70
